KCUT

Custer County Airport

Custer, South Dakota, USA
METAR KCUT 181953Z AUTO 18004KT 7SM OVC003 M07/M08 A2986 RMK AO2 SLP152 T10671083
Observed Flight Rules
Jan-18 @ 19:53 UTC (15 minutes ago) Instrument Flight Rules
Wind Visibility Clouds
180° at 4 knots 7 miles
  • Overcast at 300' AGL
Temperatures Readings
Current -7°C / 19°F
Dewpoint -8°C / 18°F
Humidity 93%
Altimeter 29.86" Hg
Pressure 1015.2 hPa
Elevation 1725
METAR KCUT 181953Z AUTO 18004KT 7SM OVC003 M07/M08 A2986 RMK AO2 SLP152 T10671083
Observed Flight Rules
Jan-18 @ 19:53 UTC
(15 minutes ago)
LIFR
Wind Visibility
180° at 4 knots 7 miles
Clouds
  • Overcast at 300' AGL
Temperature Dewpoint
-7°C / 19°F -8°C / 18°F
Humidity Altimeter Pressure
93% 29.86" Hg 1015.2 hPa